Time;durP1;ratioP1;P1;durP2;ratioP2;P2;SDS_P1;SDS_P2;PMS_P1;PMS_P2;Temp;Humidity;BMP_temperature;BMP_pressure;BME280_temperature;BME280_humidity;BME280_pressure;Samples;Min_cycle;Max_cycle;Signal;HPM_P1;HPM_P2
2023/05/19 00:02:14;;;;;;;3.92;3.40;;;13.70;99.90;;;;;;5050803;28;20735;-72
2023/05/19 00:04:43;;;;;;;8.63;3.28;;;13.70;99.90;;;;;;5048929;28;20215;-72
2023/05/19 00:07:11;;;;;;;5.45;3.25;;;13.70;99.90;;;;;;5049751;28;20242;-72
2023/05/19 00:09:38;;;;;;;3.10;2.80;;;13.70;99.90;;;;;;5050122;28;20235;-71
2023/05/19 00:12:06;;;;;;;3.78;3.10;;;13.70;99.90;;;;;;5049525;28;20243;-72
2023/05/19 00:14:33;;;;;;;5.57;2.38;;;13.60;99.90;;;;;;5049871;28;20264;-72
2023/05/19 00:17:01;;;;;;;5.20;2.88;;;13.60;99.90;;;;;;5050630;28;20214;-71
2023/05/19 00:19:31;;;;;;;4.10;3.05;;;13.60;99.90;;;;;;5048835;28;20238;-72
2023/05/19 00:21:59;;;;;;;8.32;3.28;;;13.60;99.90;;;;;;5039037;28;20206;-71
2023/05/19 00:24:26;;;;;;;5.03;3.25;;;13.70;99.90;;;;;;5050155;28;20246;-72
2023/05/19 00:26:53;;;;;;;5.68;3.22;;;13.70;99.90;;;;;;5050800;28;20261;-72
2023/05/19 00:29:20;;;;;;;5.65;4.03;;;13.70;99.90;;;;;;5050638;28;20265;-72
2023/05/19 00:31:46;;;;;;;4.25;3.30;;;13.70;99.90;;;;;;5049020;28;20242;-71
2023/05/19 00:34:13;;;;;;;6.25;3.78;;;13.60;99.90;;;;;;5050116;28;20253;-72
2023/05/19 00:36:40;;;;;;;3.83;2.60;;;13.60;99.90;;;;;;5049201;28;20645;-71
2023/05/19 00:39:09;;;;;;;5.45;3.33;;;13.60;99.90;;;;;;5048692;28;20234;-74
2023/05/19 00:41:36;;;;;;;6.43;3.38;;;13.60;99.90;;;;;;5049955;28;20206;-75
2023/05/19 00:44:02;;;;;;;4.03;3.13;;;13.50;99.90;;;;;;5050273;28;20680;-75
2023/05/19 00:46:30;;;;;;;6.05;2.83;;;13.60;99.90;;;;;;5049785;28;20242;-74
2023/05/19 00:48:57;;;;;;;4.95;3.40;;;13.60;99.90;;;;;;5049986;28;20207;-72
2023/05/19 00:51:26;;;;;;;3.83;2.78;;;13.60;99.90;;;;;;5050612;28;20659;-71
2023/05/19 00:53:53;;;;;;;3.65;2.97;;;13.60;99.90;;;;;;5049536;28;20674;-72
2023/05/19 00:56:21;;;;;;;5.15;2.97;;;13.60;99.90;;;;;;5050628;28;20246;-73
2023/05/19 00:58:51;;;;;;;4.25;3.25;;;13.50;99.90;;;;;;5048702;28;20648;-71
2023/05/19 01:01:20;;;;;;;5.28;3.10;;;13.60;99.90;;;;;;5050049;28;20348;-71
2023/05/19 01:03:48;;;;;;;3.78;2.80;;;13.50;99.90;;;;;;5049508;28;20682;-71
2023/05/19 01:06:17;;;;;;;4.85;2.70;;;13.50;99.90;;;;;;5046836;28;20245;-72
2023/05/19 01:08:44;;;;;;;3.05;2.67;;;13.50;99.90;;;;;;5049706;28;20210;-71
2023/05/19 01:11:11;;;;;;;5.32;3.20;;;13.50;99.90;;;;;;5050049;28;20242;-71
2023/05/19 01:13:40;;;;;;;3.90;2.90;;;13.50;99.90;;;;;;5049594;28;20300;-71
2023/05/19 01:16:12;;;;;;;2.92;2.35;;;13.50;99.90;;;;;;5050010;28;20230;-71
2023/05/19 01:19:00;;;;;;;4.47;3.10;;;13.50;99.90;;;;;;5048317;28;20238;-71
2023/05/19 01:21:50;;;;;;;3.40;2.65;;;13.50;99.90;;;;;;5036688;28;20210;-72
2023/05/19 01:24:34;;;;;;;4.40;2.60;;;13.40;99.90;;;;;;5048806;28;20242;-71
2023/05/19 01:27:24;;;;;;;4.40;2.88;;;13.40;99.90;;;;;;5049917;28;20315;-71
2023/05/19 01:30:16;;;;;;;4.60;2.67;;;13.40;99.90;;;;;;5050169;28;20301;-72
2023/05/19 01:32:44;;;;;;;3.60;2.63;;;13.40;99.90;;;;;;5049246;28;20679;-71
2023/05/19 01:35:15;;;;;;;4.57;3.13;;;13.50;99.90;;;;;;5047746;28;20665;-72
2023/05/19 01:37:44;;;;;;;4.97;3.40;;;13.50;99.90;;;;;;5050222;28;20352;-71
2023/05/19 01:40:11;;;;;;;3.35;2.85;;;13.40;99.90;;;;;;5052924;28;20230;-72
2023/05/19 01:42:40;;;;;;;9.93;3.90;;;13.40;99.90;;;;;;5034208;28;20234;-71
2023/05/19 01:45:10;;;;;;;4.28;2.53;;;13.40;99.90;;;;;;5046238;28;20211;-72
2023/05/19 01:47:42;;;;;;;4.28;2.88;;;13.40;99.90;;;;;;5043161;28;20209;-71
2023/05/19 01:50:09;;;;;;;8.27;3.35;;;13.40;99.90;;;;;;5047172;28;20235;-71
2023/05/19 01:52:36;;;;;;;4.47;2.67;;;13.30;99.90;;;;;;5052733;28;20206;-71
2023/05/19 01:55:04;;;;;;;4.78;3.33;;;13.30;99.90;;;;;;5052926;28;20661;-71
2023/05/19 01:57:40;;;;;;;7.65;3.88;;;13.40;99.90;;;;;;5051304;28;20231;-71
2023/05/19 02:00:14;;;;;;;4.00;2.92;;;13.30;99.90;;;;;;5049468;28;20786;-71
2023/05/19 02:02:53;;;;;;;6.57;3.35;;;13.40;99.90;;;;;;5053013;28;20218;-71
2023/05/19 02:05:28;;;;;;;3.33;3.00;;;13.40;99.90;;;;;;5061903;28;20238;-71
2023/05/19 02:08:01;;;;;;;7.10;3.70;;;13.40;99.90;;;;;;5052513;28;20739;-72
2023/05/19 02:10:30;;;;;;;5.53;3.45;;;13.30;99.90;;;;;;5052536;28;20225;-72
2023/05/19 02:13:01;;;;;;;7.78;4.35;;;13.30;99.90;;;;;;5051511;28;20592;-73
2023/05/19 02:15:34;;;;;;;8.93;4.47;;;13.10;99.90;;;;;;5045038;28;20231;-72
2023/05/19 02:18:03;;;;;;;6.63;3.85;;;13.10;99.90;;;;;;5046912;28;20242;-72
2023/05/19 02:20:30;;;;;;;6.90;3.67;;;13.00;99.90;;;;;;5052560;28;20262;-73
2023/05/19 02:22:57;;;;;;;6.63;4.07;;;12.90;99.90;;;;;;5052893;28;20245;-73
2023/05/19 02:25:24;;;;;;;7.75;3.92;;;12.90;99.90;;;;;;5052015;28;20245;-71
2023/05/19 02:27:52;;;;;;;5.57;3.65;;;12.90;99.90;;;;;;5051771;28;20266;-72
2023/05/19 02:30:19;;;;;;;4.25;3.85;;;12.80;99.90;;;;;;5052684;28;20914;-73
2023/05/19 02:32:46;;;;;;;4.95;3.33;;;12.80;99.90;;;;;;5051925;28;20217;-72
2023/05/19 02:35:14;;;;;;;6.25;3.30;;;12.80;99.90;;;;;;5049164;28;20690;-72
2023/05/19 02:37:41;;;;;;;6.20;4.20;;;12.70;99.90;;;;;;5051295;28;20249;-73
2023/05/19 02:40:09;;;;;;;5.88;3.88;;;12.60;99.90;;;;;;5052065;28;20269;-72
2023/05/19 02:42:36;;;;;;;5.88;2.85;;;12.70;99.90;;;;;;5051908;28;20235;-72
2023/05/19 02:45:03;;;;;;;7.72;4.60;;;12.70;99.90;;;;;;5051106;28;20241;-72
2023/05/19 02:47:30;;;;;;;3.40;3.10;;;12.70;99.90;;;;;;5051863;28;20238;-73
2023/05/19 02:49:57;;;;;;;7.32;3.65;;;12.80;99.90;;;;;;5040658;28;20246;-72
2023/05/19 02:52:25;;;;;;;3.88;3.47;;;12.80;99.90;;;;;;5048432;28;20246;-72
2023/05/19 02:54:52;;;;;;;7.30;3.83;;;12.70;99.90;;;;;;5052333;28;20250;-71
2023/05/19 02:57:19;;;;;;;6.45;3.63;;;12.60;99.90;;;;;;5052118;28;20243;-71
2023/05/19 02:59:46;;;;;;;5.93;2.90;;;12.60;99.90;;;;;;5051573;28;20273;-71
2023/05/19 03:02:13;;;;;;;3.30;3.00;;;12.50;99.90;;;;;;5050712;28;20246;-72
2023/05/19 03:04:41;;;;;;;5.45;3.80;;;12.60;99.90;;;;;;5050126;28;20260;-71
2023/05/19 03:07:09;;;;;;;4.95;3.75;;;12.60;99.90;;;;;;5050808;28;20300;-71
2023/05/19 03:09:38;;;;;;;6.60;4.07;;;12.60;99.90;;;;;;5051217;28;20203;-72
2023/05/19 03:12:06;;;;;;;6.88;3.97;;;12.60;99.90;;;;;;5051622;28;20234;-72
2023/05/19 03:14:33;;;;;;;5.47;3.20;;;12.40;99.90;;;;;;5050878;28;20214;-71
2023/05/19 03:17:01;;;;;;;8.43;3.90;;;12.40;99.90;;;;;;5049832;28;20238;-71
2023/05/19 03:19:28;;;;;;;14.32;4.45;;;12.50;99.90;;;;;;5050924;28;20714;-71
2023/05/19 03:21:55;;;;;;;4.78;3.40;;;12.60;99.90;;;;;;5051484;28;20261;-71
2023/05/19 03:24:22;;;;;;;7.43;4.45;;;12.50;99.90;;;;;;5051673;28;20294;-71
2023/05/19 03:26:50;;;;;;;5.50;3.75;;;12.50;99.90;;;;;;5051205;28;20234;-71
2023/05/19 03:29:17;;;;;;;5.97;3.90;;;12.50;99.90;;;;;;5051296;28;20758;-71
2023/05/19 03:31:44;;;;;;;6.95;4.55;;;12.40;99.90;;;;;;5050042;28;20242;-71
2023/05/19 03:34:11;;;;;;;6.00;3.60;;;12.50;99.90;;;;;;5051531;28;20233;-71
2023/05/19 03:36:38;;;;;;;5.88;3.72;;;12.50;99.90;;;;;;5048623;28;20237;-71
2023/05/19 03:39:05;;;;;;;5.57;3.53;;;12.60;99.90;;;;;;5048724;28;20293;-71
2023/05/19 03:41:32;;;;;;;5.45;3.58;;;12.60;99.90;;;;;;5050095;28;20210;-70
2023/05/19 03:44:01;;;;;;;4.97;3.42;;;12.60;99.90;;;;;;5051009;28;20294;-71
2023/05/19 03:46:28;;;;;;;4.68;3.80;;;12.60;99.90;;;;;;5049432;28;20199;-71
2023/05/19 03:48:55;;;;;;;4.53;3.53;;;12.50;99.90;;;;;;5049238;28;20764;-71
2023/05/19 03:51:21;;;;;;;4.50;3.42;;;12.40;99.90;;;;;;5041085;28;20234;-70
2023/05/19 03:53:48;;;;;;;5.30;4.10;;;12.40;99.90;;;;;;5050740;28;20249;-71
2023/05/19 03:56:17;;;;;;;3.95;3.65;;;12.40;99.90;;;;;;5037012;28;20245;-71
2023/05/19 03:58:45;;;;;;;6.00;4.35;;;12.40;99.90;;;;;;5050706;28;20211;-71
2023/05/19 04:01:14;;;;;;;6.30;4.10;;;12.40;99.90;;;;;;5048222;28;20234;-71
2023/05/19 04:03:41;;;;;;;4.18;3.60;;;12.40;99.90;;;;;;5049453;28;20347;-71
2023/05/19 04:06:08;;;;;;;5.75;4.05;;;12.40;99.90;;;;;;5037953;28;20269;-71
2023/05/19 04:08:35;;;;;;;3.85;3.50;;;12.50;99.90;;;;;;5050281;28;20242;-71
2023/05/19 04:11:01;;;;;;;4.45;3.30;;;12.40;99.90;;;;;;5047054;28;20656;-70
2023/05/19 04:13:28;;;;;;;4.13;3.58;;;12.40;99.90;;;;;;5046593;28;20259;-70
2023/05/19 04:15:55;;;;;;;7.85;3.92;;;12.30;99.90;;;;;;5043695;28;20238;-71
2023/05/19 04:18:24;;;;;;;5.90;4.13;;;12.30;99.90;;;;;;5048424;28;20238;-71
2023/05/19 04:20:51;;;;;;;11.15;4.43;;;12.30;99.90;;;;;;5050416;28;20773;-71
2023/05/19 04:23:18;;;;;;;5.50;4.38;;;12.20;99.90;;;;;;5050451;28;20245;-71
2023/05/19 04:25:47;;;;;;;6.53;3.53;;;12.20;99.90;;;;;;5050357;28;20250;-70
2023/05/19 04:28:14;;;;;;;6.28;3.65;;;12.20;99.90;;;;;;5049620;28;20207;-71
2023/05/19 04:30:41;;;;;;;5.07;3.75;;;12.20;99.90;;;;;;5050027;28;20623;-70
2023/05/19 04:33:09;;;;;;;4.93;3.70;;;12.20;99.90;;;;;;5050292;28;20238;-71
2023/05/19 04:35:38;;;;;;;5.15;3.45;;;12.30;99.90;;;;;;5049115;28;20203;-71
2023/05/19 04:38:05;;;;;;;6.55;3.33;;;12.30;99.90;;;;;;5046820;28;20256;-71
2023/05/19 04:40:32;;;;;;;5.60;3.50;;;12.30;99.90;;;;;;5049142;28;20262;-71
2023/05/19 04:43:00;;;;;;;4.25;3.85;;;12.30;99.90;;;;;;5049288;28;20245;-71
2023/05/19 04:45:27;;;;;;;4.72;3.50;;;12.40;99.90;;;;;;5048962;28;20230;-71
2023/05/19 04:47:56;;;;;;;4.32;2.88;;;12.30;99.90;;;;;;5050374;28;20286;-71
2023/05/19 04:50:24;;;;;;;5.47;3.78;;;12.30;99.90;;;;;;5036034;28;20663;-71
2023/05/19 04:52:52;;;;;;;5.55;3.70;;;12.40;99.90;;;;;;5036606;28;20588;-71
2023/05/19 04:55:19;;;;;;;7.22;4.03;;;12.40;99.90;;;;;;5050751;28;20238;-71
2023/05/19 04:57:46;;;;;;;7.45;3.35;;;12.40;99.90;;;;;;5048393;28;20257;-71
2023/05/19 05:00:14;;;;;;;6.22;3.75;;;12.30;99.90;;;;;;5049935;28;20238;-71
2023/05/19 05:02:41;;;;;;;16.23;4.28;;;12.40;99.90;;;;;;5049039;28;20218;-71
2023/05/19 05:05:09;;;;;;;4.55;3.08;;;12.40;99.90;;;;;;5050182;28;20207;-71
2023/05/19 05:07:37;;;;;;;4.50;3.30;;;12.40;99.90;;;;;;5049010;28;20206;-71
2023/05/19 05:10:07;;;;;;;9.43;3.88;;;12.40;99.90;;;;;;5050031;28;20207;-71
2023/05/19 05:12:34;;;;;;;7.55;3.58;;;12.40;99.90;;;;;;5048795;28;20242;-71
2023/05/19 05:15:02;;;;;;;8.35;3.10;;;12.40;99.90;;;;;;5049016;28;20231;-72
2023/05/19 05:17:29;;;;;;;4.05;3.65;;;12.30;99.90;;;;;;5052175;28;20284;-72
2023/05/19 05:19:57;;;;;;;9.85;4.30;;;12.40;99.90;;;;;;5052751;28;20262;-72
2023/05/19 05:22:24;;;;;;;5.13;3.83;;;12.40;99.90;;;;;;5053420;28;20298;-72
2023/05/19 05:24:52;;;;;;;4.60;3.97;;;12.40;99.90;;;;;;5043907;28;20218;-72
2023/05/19 05:27:20;;;;;;;6.93;3.85;;;12.40;99.90;;;;;;5036133;28;20261;-72
2023/05/19 05:29:47;;;;;;;10.35;4.65;;;12.40;99.90;;;;;;5036817;28;20218;-72
2023/05/19 05:32:15;;;;;;;4.88;4.35;;;12.40;99.90;;;;;;5045120;28;20239;-72
2023/05/19 05:34:42;;;;;;;7.90;3.75;;;12.40;99.90;;;;;;5039137;28;20295;-71
2023/05/19 05:37:09;;;;;;;6.68;4.32;;;12.40;99.90;;;;;;5044448;28;20242;-71
2023/05/19 05:39:36;;;;;;;8.98;3.65;;;12.40;99.90;;;;;;5047166;28;20701;-72
2023/05/19 05:42:03;;;;;;;6.97;3.33;;;12.40;99.90;;;;;;5053149;28;20234;-71
2023/05/19 05:44:33;;;;;;;4.90;3.38;;;12.40;99.90;;;;;;5041280;28;20239;-71
2023/05/19 05:47:00;;;;;;;3.53;3.00;;;12.40;99.90;;;;;;5050071;28;20257;-71
2023/05/19 05:49:27;;;;;;;5.35;4.57;;;12.50;99.90;;;;;;5046542;28;20724;-71
2023/05/19 05:51:55;;;;;;;5.93;3.78;;;12.50;99.90;;;;;;5045615;28;20245;-72
2023/05/19 05:54:23;;;;;;;8.40;4.07;;;12.50;99.90;;;;;;5053267;28;20253;-70
2023/05/19 05:56:51;;;;;;;4.93;3.33;;;12.50;99.90;;;;;;5053189;28;20211;-71
2023/05/19 05:59:19;;;;;;;4.93;3.33;;;12.50;99.90;;;;;;5050385;28;20269;-71
2023/05/19 06:01:47;;;;;;;6.68;3.38;;;12.50;99.90;;;;;;5046331;28;20235;-70
2023/05/19 06:04:14;;;;;;;4.65;3.78;;;12.50;99.90;;;;;;5047970;28;20235;-71
2023/05/19 06:06:41;;;;;;;7.00;3.55;;;12.50;99.90;;;;;;5050473;28;20260;-70
2023/05/19 06:09:08;;;;;;;4.22;3.72;;;12.50;99.90;;;;;;5050190;28;20239;-69
2023/05/19 06:11:35;;;;;;;5.43;3.53;;;12.60;99.90;;;;;;5052430;28;20258;-71
2023/05/19 06:14:03;;;;;;;5.68;3.58;;;12.50;99.90;;;;;;5051479;28;20207;-70
2023/05/19 06:16:30;;;;;;;10.88;4.10;;;12.50;99.90;;;;;;5051947;28;20265;-70
2023/05/19 06:18:58;;;;;;;7.32;3.53;;;12.50;99.90;;;;;;5052845;28;20249;-70
2023/05/19 06:21:25;;;;;;;7.75;4.38;;;12.50;99.90;;;;;;5050783;28;20223;-71
2023/05/19 06:23:52;;;;;;;5.10;3.85;;;12.40;99.90;;;;;;5051895;28;20686;-71
2023/05/19 06:26:19;;;;;;;8.73;3.45;;;12.50;99.90;;;;;;5050649;28;20241;-70
2023/05/19 06:28:46;;;;;;;5.30;3.78;;;12.50;99.90;;;;;;5049360;28;20288;-71
2023/05/19 06:31:13;;;;;;;6.20;4.75;;;12.50;99.90;;;;;;5050501;28;20618;-71
2023/05/19 06:33:40;;;;;;;4.57;3.50;;;12.50;99.90;;;;;;5050735;28;20256;-70
2023/05/19 06:36:09;;;;;;;6.00;4.03;;;12.50;99.90;;;;;;5050896;28;20246;-71
2023/05/19 06:38:36;;;;;;;6.45;4.03;;;12.50;99.90;;;;;;5045000;28;20207;-70
2023/05/19 06:41:03;;;;;;;5.78;3.63;;;12.50;99.90;;;;;;5057871;28;20231;-74
2023/05/19 06:43:30;;;;;;;8.85;3.55;;;12.50;99.90;;;;;;5050559;28;20265;-73
2023/05/19 06:45:57;;;;;;;4.57;3.15;;;12.50;99.90;;;;;;5050405;28;20670;-70
2023/05/19 06:48:24;;;;;;;6.72;3.72;;;12.50;99.90;;;;;;5050873;28;20242;-71
2023/05/19 06:50:51;;;;;;;6.07;3.85;;;12.50;99.90;;;;;;5038419;28;20287;-70
2023/05/19 06:53:20;;;;;;;6.13;3.67;;;12.50;99.90;;;;;;5050361;28;20686;-71
2023/05/19 06:55:49;;;;;;;3.95;3.53;;;12.50;99.90;;;;;;5051380;28;20211;-71
2023/05/19 06:58:15;;;;;;;4.75;3.28;;;12.50;99.90;;;;;;5051534;28;20203;-71
2023/05/19 07:00:43;;;;;;;6.93;4.13;;;12.50;99.90;;;;;;5048751;28;20326;-71
2023/05/19 07:03:10;;;;;;;7.07;4.68;;;12.50;99.90;;;;;;5051540;28;20211;-71
2023/05/19 07:05:37;;;;;;;5.00;3.60;;;12.50;99.90;;;;;;5046752;28;20290;-70
2023/05/19 07:08:04;;;;;;;7.78;3.85;;;12.50;99.90;;;;;;5046713;28;20238;-70
2023/05/19 07:10:32;;;;;;;5.65;4.32;;;12.60;99.90;;;;;;5048835;28;20560;-71
2023/05/19 07:12:59;;;;;;;6.60;4.50;;;12.50;99.90;;;;;;5051395;28;20231;-71
2023/05/19 07:15:26;;;;;;;5.80;4.45;;;12.50;99.90;;;;;;5050810;28;20203;-71
2023/05/19 07:17:53;;;;;;;5.20;3.67;;;12.50;99.90;;;;;;5051636;28;20303;-71
2023/05/19 07:20:20;;;;;;;7.88;4.32;;;12.40;99.90;;;;;;5051661;28;20686;-71
2023/05/19 07:22:47;;;;;;;5.43;4.10;;;12.40;99.90;;;;;;5049718;28;20238;-70
2023/05/19 07:25:14;;;;;;;11.30;4.60;;;12.50;99.90;;;;;;5049915;28;20278;-71
2023/05/19 07:27:42;;;;;;;5.35;3.70;;;12.50;99.90;;;;;;5050123;28;21189;-71
2023/05/19 07:30:10;;;;;;;6.78;3.25;;;12.50;99.90;;;;;;5050204;28;20230;-71
2023/05/19 07:32:36;;;;;;;7.15;5.47;;;12.50;99.90;;;;;;5043946;28;20242;-72
2023/05/19 07:35:05;;;;;;;7.38;3.90;;;12.50;99.90;;;;;;5050728;28;20241;-71
2023/05/19 07:37:32;;;;;;;7.22;4.30;;;12.50;99.90;;;;;;5045144;28;20245;-70
2023/05/19 07:39:59;;;;;;;7.60;4.45;;;12.50;99.90;;;;;;5050107;28;20319;-71
2023/05/19 07:42:26;;;;;;;4.85;4.35;;;12.50;99.90;;;;;;5050290;28;20295;-71
2023/05/19 07:44:54;;;;;;;7.80;4.18;;;12.50;99.90;;;;;;5051225;28;20246;-70
2023/05/19 07:47:21;;;;;;;6.07;4.28;;;12.50;99.90;;;;;;5051012;28;20234;-71
2023/05/19 07:49:48;;;;;;;6.35;3.60;;;12.50;99.90;;;;;;5041952;28;20253;-71
2023/05/19 07:52:17;;;;;;;7.10;3.47;;;12.50;99.90;;;;;;5045860;28;20694;-70
2023/05/19 07:54:44;;;;;;;10.52;5.10;;;12.50;99.90;;;;;;5049612;28;20206;-70
2023/05/19 07:57:10;;;;;;;7.38;4.15;;;12.50;99.90;;;;;;5050350;28;20206;-71
2023/05/19 07:59:37;;;;;;;6.88;3.90;;;12.50;99.90;;;;;;5049206;28;20613;-71
2023/05/19 08:02:06;;;;;;;9.45;4.50;;;12.60;99.90;;;;;;5050514;28;20281;-71
2023/05/19 08:04:33;;;;;;;4.75;3.83;;;12.50;99.90;;;;;;5049993;28;20253;-71
2023/05/19 08:07:00;;;;;;;10.32;3.95;;;12.50;99.90;;;;;;5050254;28;20249;-70
2023/05/19 08:09:27;;;;;;;5.28;4.28;;;12.50;99.90;;;;;;5050358;28;20242;-71
2023/05/19 08:11:53;;;;;;;10.93;4.50;;;12.60;99.90;;;;;;5049404;28;20246;-70
2023/05/19 08:14:21;;;;;;;4.35;3.22;;;12.70;99.90;;;;;;5048722;28;20285;-70
2023/05/19 08:16:48;;;;;;;6.43;3.92;;;12.70;99.90;;;;;;5040665;28;20219;-70
2023/05/19 08:19:16;;;;;;;6.10;3.38;;;12.80;99.90;;;;;;5046904;28;20230;-72
2023/05/19 08:21:44;;;;;;;12.45;3.90;;;12.90;99.90;;;;;;5043486;28;20266;-74
2023/05/19 08:24:11;;;;;;;6.00;3.65;;;13.00;99.90;;;;;;5040677;28;20219;-71
2023/05/19 08:26:38;;;;;;;5.20;3.25;;;13.20;99.90;;;;;;5039905;28;20239;-70
2023/05/19 08:29:05;;;;;;;5.30;3.40;;;13.20;99.90;;;;;;5049409;28;20257;-70
2023/05/19 08:31:32;;;;;;;4.57;3.55;;;13.30;99.90;;;;;;5049970;28;20368;-70
2023/05/19 08:33:59;;;;;;;7.43;4.10;;;13.40;99.90;;;;;;5047930;28;20245;-70
2023/05/19 08:36:28;;;;;;;9.60;4.20;;;13.50;99.90;;;;;;5046210;28;20198;-70
2023/05/19 08:38:54;;;;;;;9.05;3.95;;;13.50;99.90;;;;;;5050222;28;20272;-71
2023/05/19 08:41:22;;;;;;;7.60;3.70;;;13.50;99.90;;;;;;5050138;28;20266;-70
2023/05/19 08:43:49;;;;;;;6.28;3.97;;;13.50;99.90;;;;;;5049241;28;20207;-70
2023/05/19 08:46:17;;;;;;;6.32;3.58;;;13.80;99.90;;;;;;5049172;28;20283;-70
2023/05/19 08:48:47;;;;;;;8.43;4.40;;;13.80;99.90;;;;;;5051926;28;20214;-70
2023/05/19 08:51:32;;;;;;;5.57;4.22;;;13.90;99.90;;;;;;5048957;28;20252;-70
2023/05/19 08:54:09;;;;;;;6.20;4.18;;;14.00;99.90;;;;;;5050720;28;20261;-70
2023/05/19 08:56:36;;;;;;;8.07;4.20;;;14.20;99.90;;;;;;5047881;28;20263;-75
2023/05/19 08:59:03;;;;;;;5.03;3.55;;;14.20;99.90;;;;;;5052899;28;20242;-71
2023/05/19 09:01:31;;;;;;;5.63;4.10;;;14.20;99.90;;;;;;5050967;28;20676;-70
2023/05/19 09:03:58;;;;;;;4.70;3.72;;;14.40;99.90;;;;;;5054031;28;20261;-70
2023/05/19 09:06:27;;;;;;;7.78;4.97;;;14.30;99.90;;;;;;5049910;28;20239;-71
2023/05/19 09:08:53;;;;;;;9.88;3.67;;;14.40;99.90;;;;;;5051705;28;20243;-70
2023/05/19 09:11:22;;;;;;;4.00;3.50;;;14.40;99.90;;;;;;5053596;28;20666;-70
2023/05/19 09:13:49;;;;;;;6.20;3.75;;;14.60;99.90;;;;;;5054027;28;20254;-70
2023/05/19 09:16:17;;;;;;;3.80;3.40;;;14.70;99.90;;;;;;5053637;28;20282;-70
2023/05/19 09:18:54;;;;;;;7.50;3.65;;;14.70;99.90;;;;;;5053441;28;20210;-70
2023/05/19 09:21:29;;;;;;;7.05;3.65;;;14.50;99.90;;;;;;5047175;28;20321;-73
2023/05/19 09:23:57;;;;;;;4.82;3.15;;;14.40;99.90;;;;;;5049644;28;20679;-71
2023/05/19 09:26:36;;;;;;;7.00;4.15;;;14.40;99.90;;;;;;5049854;28;20597;-72
2023/05/19 09:29:10;;;;;;;6.00;3.50;;;14.80;99.90;;;;;;5044120;28;20682;-76
2023/05/19 09:31:37;;;;;;;8.88;3.88;;;15.70;99.90;;;;;;5050978;28;20628;-76
2023/05/19 09:34:04;;;;;;;4.93;3.30;;;16.00;99.90;;;;;;5051354;28;20234;-71
2023/05/19 09:36:31;;;;;;;4.80;3.45;;;15.80;99.90;;;;;;5046832;28;20652;-72
2023/05/19 09:38:57;;;;;;;15.32;3.97;;;15.60;99.90;;;;;;5051086;28;20235;-71
2023/05/19 09:41:26;;;;;;;4.60;3.05;;;15.60;99.90;;;;;;5051895;28;20266;-73
2023/05/19 09:43:55;;;;;;;3.85;2.85;;;15.50;99.90;;;;;;5053583;28;20234;-71
2023/05/19 09:46:27;;;;;;;7.18;4.10;;;15.20;99.90;;;;;;5053714;28;20207;-74
2023/05/19 09:48:57;;;;;;;7.70;3.45;;;15.10;99.90;;;;;;5049103;28;20210;-73
2023/05/19 09:51:24;;;;;;;7.30;3.63;;;15.20;99.90;;;;;;5041252;28;20260;-74
2023/05/19 09:53:52;;;;;;;8.90;4.72;;;15.30;99.90;;;;;;5052249;28;20234;-78
2023/05/19 09:56:22;;;;;;;7.43;2.95;;;15.40;99.90;;;;;;5048672;28;20241;-75
2023/05/19 09:58:51;;;;;;;4.60;3.47;;;15.50;99.90;;;;;;5051661;28;20207;-75
2023/05/19 10:01:19;;;;;;;12.38;3.38;;;15.60;99.90;;;;;;5047941;28;20304;-75
2023/05/19 10:03:46;;;;;;;3.80;3.00;;;15.70;99.90;;;;;;5049107;28;20253;-78
2023/05/19 10:06:14;;;;;;;5.72;3.40;;;15.60;99.90;;;;;;5047490;28;20207;-78
2023/05/19 10:08:42;;;;;;;5.03;3.55;;;15.40;99.90;;;;;;5048746;28;20289;-77
2023/05/19 10:11:10;;;;;;;7.63;3.83;;;15.20;99.90;;;;;;5052863;28;20206;-76
2023/05/19 10:13:38;;;;;;;4.60;3.75;;;15.10;99.90;;;;;;5052681;28;20238;-77
2023/05/19 10:16:09;;;;;;;8.15;4.30;;;15.30;99.90;;;;;;5048159;28;20694;-77
2023/05/19 10:18:37;;;;;;;5.97;3.92;;;15.40;99.90;;;;;;5051481;28;20242;-76
2023/05/19 10:21:06;;;;;;;4.70;3.55;;;15.60;99.90;;;;;;5051167;28;20215;-77
2023/05/19 10:23:32;;;;;;;5.57;3.75;;;15.70;99.90;;;;;;5051980;28;20210;-75
2023/05/19 10:26:02;;;;;;;4.05;3.40;;;15.70;99.90;;;;;;5052206;28;20245;-75
2023/05/19 10:28:36;;;;;;;4.53;3.17;;;15.50;99.90;;;;;;5050981;28;20666;-72
2023/05/19 10:31:06;;;;;;;5.82;3.38;;;15.60;99.90;;;;;;5052374;28;20211;-75
2023/05/19 10:33:50;;;;;;;5.55;3.25;;;15.80;99.90;;;;;;5049169;28;20667;-78
2023/05/19 10:36:34;;;;;;;8.48;3.63;;;15.80;99.90;;;;;;5051999;28;20299;-77
2023/05/19 10:39:05;;;;;;;3.88;3.40;;;15.80;99.90;;;;;;5050301;28;20633;-73
2023/05/19 10:41:41;;;;;;;6.23;4.03;;;15.80;99.90;;;;;;5047471;28;20480;-82
2023/05/19 10:44:13;;;;;;;7.63;3.80;;;15.80;99.90;;;;;;5052130;28;20477;-80
2023/05/19 10:46:41;;;;;;;5.85;3.35;;;15.60;99.90;;;;;;5048665;28;20292;-78
2023/05/19 10:49:10;;;;;;;6.68;3.22;;;15.80;99.90;;;;;;5048810;28;20215;-77
2023/05/19 10:51:37;;;;;;;5.03;3.40;;;15.90;99.90;;;;;;5040413;28;20236;-77
2023/05/19 10:54:08;;;;;;;6.68;3.75;;;15.80;99.90;;;;;;5051966;28;20210;-75
2023/05/19 10:56:41;;;;;;;4.55;3.13;;;15.80;99.90;;;;;;5048735;28;20569;-76
2023/05/19 10:59:08;;;;;;;5.45;3.58;;;15.50;99.90;;;;;;5049232;28;20289;-74
2023/05/19 11:01:37;;;;;;;3.92;3.55;;;15.30;99.90;;;;;;5049899;28;20254;-76
2023/05/19 11:04:11;;;;;;;6.95;3.88;;;15.20;99.90;;;;;;5050396;28;20214;-76
2023/05/19 11:06:39;;;;;;;4.05;3.15;;;15.10;99.90;;;;;;5050155;28;20209;-76
2023/05/19 11:09:14;;;;;;;10.40;4.03;;;15.10;99.90;;;;;;5052797;28;20210;-73
2023/05/19 11:11:48;;;;;;;3.92;3.15;;;15.00;99.90;;;;;;5039374;28;20658;-73
2023/05/19 11:14:17;;;;;;;4.70;3.05;;;15.10;99.90;;;;;;5050718;28;20214;-72
2023/05/19 11:16:47;;;;;;;5.20;3.13;;;15.10;99.90;;;;;;5051051;28;20211;-74
2023/05/19 11:19:20;;;;;;;4.30;3.42;;;15.20;99.90;;;;;;5051385;28;20215;-73
2023/05/19 11:21:53;;;;;;;6.03;3.65;;;15.10;99.90;;;;;;5048080;28;20722;-73
2023/05/19 11:24:37;;;;;;;7.78;3.45;;;15.10;99.90;;;;;;5050135;28;20555;-74
2023/05/19 11:27:27;;;;;;;4.15;3.75;;;15.10;99.90;;;;;;5047526;28;20261;-73
2023/05/19 11:29:55;;;;;;;7.18;3.85;;;15.10;99.90;;;;;;5049240;28;20259;-73
2023/05/19 11:32:22;;;;;;;6.28;4.07;;;15.10;99.90;;;;;;5050766;28;20213;-73
2023/05/19 11:34:51;;;;;;;4.78;3.60;;;15.20;99.90;;;;;;5050179;28;20234;-73
2023/05/19 11:37:18;;;;;;;4.85;3.83;;;15.20;99.90;;;;;;5050768;28;20584;-73
2023/05/19 11:39:46;;;;;;;7.70;3.65;;;15.20;99.90;;;;;;5047954;28;20313;-73
2023/05/19 11:42:13;;;;;;;7.50;3.83;;;15.20;99.90;;;;;;5049598;28;20230;-73
2023/05/19 11:44:41;;;;;;;6.55;3.85;;;15.20;99.90;;;;;;5050727;28;20653;-73
2023/05/19 11:47:09;;;;;;;4.45;3.25;;;15.10;99.90;;;;;;5049826;28;20675;-73
2023/05/19 11:49:36;;;;;;;5.13;3.58;;;15.10;99.90;;;;;;5042881;28;20639;-74
2023/05/19 11:52:05;;;;;;;7.00;3.25;;;15.10;99.90;;;;;;5044356;28;20297;-73
2023/05/19 11:54:35;;;;;;;7.40;3.10;;;15.10;99.90;;;;;;5050693;28;20206;-73
2023/05/19 11:57:02;;;;;;;3.85;3.47;;;15.10;99.90;;;;;;5050900;28;20217;-73
2023/05/19 11:59:30;;;;;;;7.65;4.03;;;15.30;99.90;;;;;;5050419;28;20199;-73
2023/05/19 12:01:58;;;;;;;8.95;3.85;;;15.20;99.90;;;;;;5044703;28;20721;-73
2023/05/19 12:04:25;;;;;;;7.72;4.00;;;15.20;99.90;;;;;;5041384;28;20257;-73
2023/05/19 12:06:53;;;;;;;5.13;4.63;;;15.40;99.90;;;;;;5051092;28;20698;-73
2023/05/19 12:09:22;;;;;;;4.65;3.20;;;15.50;99.90;;;;;;5047952;28;20203;-73
2023/05/19 12:11:50;;;;;;;6.35;2.95;;;15.50;99.90;;;;;;5050695;28;20242;-73
2023/05/19 12:14:17;;;;;;;7.47;3.92;;;15.70;99.90;;;;;;5050420;28;20638;-73
2023/05/19 12:16:44;;;;;;;7.28;3.60;;;15.80;99.90;;;;;;5049192;28;20317;-73
2023/05/19 12:19:11;;;;;;;3.90;3.20;;;15.70;99.90;;;;;;5046687;28;20261;-74
2023/05/19 12:21:39;;;;;;;5.72;3.42;;;15.60;99.90;;;;;;5049523;28;20674;-73
2023/05/19 12:24:06;;;;;;;4.88;3.10;;;15.70;99.90;;;;;;5049343;28;20242;-73
2023/05/19 12:26:36;;;;;;;8.88;4.07;;;15.80;99.90;;;;;;5049253;28;20234;-74
2023/05/19 12:29:06;;;;;;;9.13;5.32;;;16.00;99.90;;;;;;5049292;28;20249;-73
2023/05/19 12:31:33;;;;;;;4.97;3.55;;;16.00;99.90;;;;;;5048223;28;20207;-74
2023/05/19 12:34:01;;;;;;;4.38;2.90;;;16.20;99.90;;;;;;5049000;28;20737;-74
2023/05/19 12:36:29;;;;;;;4.80;4.03;;;16.20;99.90;;;;;;5048847;28;20207;-74
2023/05/19 12:38:56;;;;;;;5.57;3.92;;;16.40;99.90;;;;;;5049031;28;20238;-74
2023/05/19 12:41:26;;;;;;;6.97;3.83;;;16.50;99.90;;;;;;5048953;28;20202;-74
2023/05/19 12:43:54;;;;;;;5.95;4.07;;;16.60;99.90;;;;;;5046715;28;20786;-74
2023/05/19 12:46:21;;;;;;;7.30;3.78;;;16.60;99.90;;;;;;5048011;28;20242;-73
2023/05/19 12:48:48;;;;;;;5.47;3.78;;;16.60;99.90;;;;;;5046742;28;20250;-74
2023/05/19 12:51:19;;;;;;;5.32;3.05;;;16.70;99.90;;;;;;5044444;28;20238;-73
2023/05/19 12:53:46;;;;;;;4.05;3.60;;;17.00;99.90;;;;;;5048586;28;20246;-75